createdAt,value
2024-03-26T00:09:11.474Z,2.22
2024-03-26T00:19:11.786Z,2.20
2024-03-26T00:29:12.070Z,2.30
2024-03-26T00:49:12.659Z,2.40
2024-03-26T00:59:12.913Z,2.37
2024-03-26T01:09:13.342Z,2.30
2024-03-26T01:19:13.818Z,2.17
2024-03-26T01:29:13.780Z,2.39
2024-03-26T01:39:14.271Z,2.16
2024-03-26T01:49:14.546Z,2.37
2024-03-26T01:59:14.841Z,1.93
2024-03-26T02:09:15.112Z,2.03
2024-03-26T02:19:15.378Z,2.25
2024-03-26T02:29:15.987Z,2.50
2024-03-26T02:39:15.973Z,2.32
2024-03-26T02:49:16.514Z,2.29
2024-03-26T02:59:16.508Z,2.21
2024-03-26T03:09:17.092Z,1.95
2024-03-26T03:49:17.931Z,2.09
2024-03-26T03:59:18.180Z,1.82
2024-03-26T04:09:18.743Z,1.99
2024-03-26T04:19:18.710Z,1.71
2024-03-26T04:29:18.987Z,1.81
2024-03-26T04:39:19.269Z,1.80
2024-03-26T04:49:19.547Z,1.78
2024-03-26T04:59:19.888Z,1.68
2024-03-26T05:09:20.093Z,1.87
2024-03-26T05:19:20.107Z,2.15
2024-03-26T05:29:20.647Z,2.25
2024-03-26T05:39:20.628Z,2.36
2024-03-26T05:49:20.894Z,2.58
2024-03-26T05:59:21.175Z,2.78
2024-03-26T06:09:21.360Z,3.04
2024-03-26T06:19:21.736Z,3.36
2024-03-26T06:29:22.007Z,3.69
2024-03-26T06:39:22.291Z,4.14
2024-03-26T06:49:22.479Z,4.52
2024-03-26T06:59:22.859Z,4.87
2024-03-26T07:09:23.447Z,5.20
2024-03-26T07:19:23.707Z,5.54
2024-03-26T07:29:23.970Z,5.91
2024-03-26T07:39:24.573Z,6.44
2024-03-26T07:49:25.163Z,6.98
2024-03-26T07:59:25.582Z,7.74
2024-03-26T08:09:26.340Z,8.61
2024-03-26T08:19:26.943Z,9.44
2024-03-26T08:29:27.659Z,10.50
2024-03-26T08:39:28.388Z,12.60
2024-03-26T08:49:29.127Z,12.94
2024-03-26T08:59:30.172Z,14.12
2024-03-26T09:09:31.255Z,13.95
2024-03-26T09:19:32.588Z,13.85
2024-03-26T09:29:33.375Z,14.48
2024-03-26T09:39:34.694Z,14.61
2024-03-26T09:49:35.580Z,14.33
2024-03-26T09:59:36.713Z,14.41
2024-03-26T10:09:37.867Z,14.26
2024-03-26T10:19:39.877Z,14.44
2024-03-26T10:29:40.063Z,14.44
2024-03-26T10:49:42.486Z,14.63
2024-03-26T10:59:43.360Z,14.55
2024-03-26T11:09:44.566Z,15.06
2024-03-26T11:19:45.741Z,14.78
2024-03-26T11:39:48.143Z,15.11
2024-03-26T11:49:49.332Z,14.76
2024-03-26T11:59:50.540Z,14.82
2024-03-26T12:09:51.493Z,15.08
2024-03-26T12:19:52.677Z,15.41
2024-03-26T12:29:54.135Z,15.14
2024-03-26T12:39:55.347Z,15.46
2024-03-26T12:49:56.522Z,15.45
2024-03-26T12:59:57.485Z,15.58
2024-03-26T13:09:58.754Z,15.27
2024-03-26T13:20:00.031Z,15.55
2024-03-26T13:30:01.178Z,15.45
2024-03-26T13:40:02.571Z,15.42
2024-03-26T13:50:03.569Z,15.50
2024-03-26T14:00:04.848Z,15.51
2024-03-26T14:10:06.299Z,15.31
2024-03-26T14:20:07.227Z,15.07
2024-03-26T14:30:09.160Z,15.33
2024-03-26T14:40:10.838Z,15.75
2024-03-26T14:50:10.846Z,15.50
2024-03-26T15:00:12.192Z,15.46
2024-03-26T15:10:13.334Z,15.41
2024-03-26T15:20:18.204Z,15.29
2024-03-26T15:30:15.675Z,15.20
2024-03-26T15:40:16.893Z,15.07
2024-03-26T15:50:19.405Z,14.97
2024-03-26T16:00:19.359Z,14.81
2024-03-26T16:10:31.505Z,14.57
2024-03-26T16:20:21.592Z,14.36
2024-03-26T16:30:22.764Z,14.12
2024-03-26T16:40:24.195Z,13.87
2024-03-26T16:50:25.088Z,13.72
2024-03-26T17:00:26.266Z,13.48
2024-03-26T17:10:27.463Z,13.24
2024-03-26T17:20:28.257Z,13.01
2024-03-26T17:40:30.512Z,12.49
2024-03-26T17:50:31.644Z,12.28
2024-03-26T18:00:32.818Z,12.13
2024-03-26T18:10:34.055Z,11.99
2024-03-26T18:20:34.929Z,11.82
2024-03-26T18:30:35.741Z,11.63
2024-03-26T18:40:36.717Z,11.44
2024-03-26T18:50:37.765Z,11.29
2024-03-26T19:00:38.731Z,11.18
2024-03-26T19:10:39.874Z,11.16
2024-03-26T19:20:40.868Z,11.17
2024-03-26T19:30:41.629Z,11.16
2024-03-26T19:40:42.838Z,11.08
2024-03-26T19:50:43.405Z,11.12
2024-03-26T20:00:44.591Z,11.06
2024-03-26T20:10:45.306Z,11.02
2024-03-26T20:20:46.430Z,10.91
2024-03-26T20:30:47.378Z,10.90
2024-03-26T20:40:48.307Z,10.92
2024-03-26T20:50:48.938Z,10.90
2024-03-26T21:00:50.256Z,10.88
2024-03-26T21:10:50.716Z,10.79
2024-03-26T21:20:51.752Z,10.63
2024-03-26T21:30:52.456Z,10.48
2024-03-26T21:40:53.230Z,10.29
2024-03-26T21:50:54.225Z,10.12
2024-03-26T22:00:54.827Z,10.01
2024-03-26T22:10:55.735Z,9.91
2024-03-26T22:20:56.614Z,9.85
2024-03-26T22:30:57.124Z,9.78
2024-03-26T22:40:58.005Z,9.84
2024-03-26T22:50:58.881Z,9.76
2024-03-26T23:00:59.715Z,9.76
2024-03-26T23:11:00.781Z,9.74
2024-03-26T23:21:01.341Z,9.64
2024-03-26T23:31:02.106Z,9.59
2024-03-26T23:41:02.885Z,9.41
2024-03-26T23:51:03.664Z,9.49
